Time;durP1;ratioP1;P1;durP2;ratioP2;P2;SDS_P1;SDS_P2;PMS_P1;PMS_P2;Temp;Humidity;BMP_temperature;BMP_pressure;BME280_temperature;BME280_humidity;BME280_pressure;Samples;Min_cycle;Max_cycle;Signal;HPM_P1;HPM_P2
2021/01/15 00:02:41;;;;;;;;;;;1.70;99.90;;;;;;10445487;28;19968;-63
2021/01/15 00:07:42;;;;;;;;;;;1.60;99.90;;;;;;10444840;28;19931;-63
2021/01/15 00:12:44;;;;;;;;;;;1.70;99.90;;;;;;10445090;28;20373;-63
2021/01/15 00:17:45;;;;;;;;;;;1.60;99.90;;;;;;10444691;28;19936;-63
2021/01/15 00:22:47;;;;;;;;;;;1.60;99.90;;;;;;10451398;28;20373;-63
2021/01/15 00:27:49;;;;;;;;;;;1.40;99.90;;;;;;10452432;28;19964;-63
2021/01/15 00:32:50;;;;;;;;;;;1.40;99.90;;;;;;10452743;28;19978;-63
2021/01/15 00:37:52;;;;;;;;;;;1.30;99.90;;;;;;10452883;28;20011;-63
2021/01/15 00:42:53;;;;;;;;;;;1.30;99.90;;;;;;10451517;28;20427;-63
2021/01/15 00:47:54;;;;;;;;;;;1.30;99.90;;;;;;10452146;28;19932;-62
2021/01/15 00:52:56;;;;;;;;;;;1.30;99.90;;;;;;10451852;28;19924;-63
2021/01/15 00:57:58;;;;;;;;;;;1.20;99.90;;;;;;10451687;28;19979;-63
2021/01/15 01:03:00;;;;;;;;;;;1.10;99.90;;;;;;10451761;28;19933;-63
2021/01/15 01:08:02;;;;;;;;;;;1.00;99.90;;;;;;10451787;28;19940;-63
2021/01/15 01:13:03;;;;;;;;;;;0.90;99.90;;;;;;10467213;28;19924;-63
2021/01/15 01:18:04;;;;;;;;;;;0.80;99.90;;;;;;10450728;28;19931;-63
2021/01/15 01:23:05;;;;;;;;;;;0.70;99.90;;;;;;10466193;28;19931;-63
2021/01/15 01:28:07;;;;;;;;;;;0.80;99.90;;;;;;10450241;28;20253;-63
2021/01/15 01:33:08;;;;;;;;;;;0.80;99.90;;;;;;10449156;28;19928;-63
2021/01/15 01:38:09;;;;;;;;;;;0.70;99.90;;;;;;10450501;28;19998;-63
2021/01/15 01:43:11;;;;;;;;;;;0.60;99.90;;;;;;10450059;28;19935;-63
2021/01/15 01:48:12;;;;;;;;;;;0.60;99.90;;;;;;10449561;28;20448;-63
2021/01/15 01:53:16;;;;;;;;;;;0.60;99.90;;;;;;10449998;28;19964;-63
2021/01/15 01:58:18;;;;;;;;;;;0.50;99.90;;;;;;10450480;28;19931;-63
2021/01/15 02:03:19;;;;;;;;;;;0.40;99.90;;;;;;10449609;28;19924;-63
2021/01/15 02:08:20;;;;;;;;;;;0.30;99.90;;;;;;10449220;28;20007;-63
2021/01/15 02:13:31;;;;;;;;;;;0.50;99.90;;;;;;10448178;28;20027;-63
2021/01/15 02:18:34;;;;;;;;;;;0.40;99.90;;;;;;10448412;28;19925;-63
2021/01/15 02:23:40;;;;;;;;;;;0.30;99.90;;;;;;10480559;28;19929;-63
2021/01/15 02:28:41;;;;;;;;;;;0.30;99.90;;;;;;10448418;28;20070;-63
2021/01/15 02:33:54;;;;;;;;;;;0.40;99.90;;;;;;10447535;28;19932;-63
2021/01/15 02:38:59;;;;;;;;;;;0.30;99.90;;;;;;10448231;28;19976;-63
2021/01/15 02:44:04;;;;;;;;;;;0.30;99.90;;;;;;10447603;28;20300;-63
2021/01/15 02:49:06;;;;;;;;;;;0.20;99.90;;;;;;10446664;28;20085;-63
2021/01/15 02:54:08;;;;;;;;;;;0.20;99.90;;;;;;10447032;28;20284;-63
2021/01/15 02:59:12;;;;;;;;;;;0.20;99.90;;;;;;10447958;28;19924;-63
2021/01/15 03:04:35;;;;;;;;;;;0.30;99.90;;;;;;10453437;28;19960;-62
2021/01/15 03:09:38;;;;;;;;;;;0.30;99.90;;;;;;10454521;28;19963;-63
2021/01/15 03:14:40;;;;;;;;;;;0.40;99.90;;;;;;10454800;28;19924;-63
2021/01/15 03:19:41;;;;;;;;;;;0.50;99.90;;;;;;10454479;28;19951;-63
2021/01/15 03:24:50;;;;;;;;;;;0.50;99.90;;;;;;10454369;28;19921;-63
2021/01/15 03:29:51;;;;;;;;;;;0.50;99.90;;;;;;10453885;28;19982;-64
2021/01/15 03:34:52;;;;;;;;;;;0.60;99.90;;;;;;10454019;28;19921;-63
2021/01/15 03:39:53;;;;;;;;;;;0.50;99.90;;;;;;10454469;28;20372;-63
2021/01/15 03:44:55;;;;;;;;;;;0.50;99.90;;;;;;10453618;28;19920;-63
2021/01/15 03:49:58;;;;;;;;;;;0.50;99.90;;;;;;10453246;28;20025;-63
2021/01/15 03:54:59;;;;;;;;;;;0.60;99.90;;;;;;10452994;28;20015;-63
2021/01/15 04:00:01;;;;;;;;;;;0.60;99.90;;;;;;10453442;28;19921;-63
2021/01/15 04:05:02;;;;;;;;;;;0.70;99.90;;;;;;10448918;28;20364;-64
2021/01/15 04:10:05;;;;;;;;;;;0.60;99.90;;;;;;10447332;28;20101;-63
2021/01/15 04:15:06;;;;;;;;;;;0.60;99.90;;;;;;10444799;28;19972;-63
2021/01/15 04:20:08;;;;;;;;;;;0.60;99.90;;;;;;10446202;28;20027;-63
2021/01/15 04:25:10;;;;;;;;;;;0.50;99.90;;;;;;10446424;28;19921;-64
2021/01/15 04:30:13;;;;;;;;;;;0.60;99.90;;;;;;10443233;28;19924;-64
2021/01/15 04:35:15;;;;;;;;;;;0.60;99.90;;;;;;10443241;28;20280;-63
2021/01/15 04:40:16;;;;;;;;;;;0.70;99.90;;;;;;10444042;28;20331;-64
2021/01/15 04:45:18;;;;;;;;;;;0.80;99.90;;;;;;10443142;28;20015;-64
2021/01/15 04:50:19;;;;;;;;;;;0.80;99.90;;;;;;10439236;28;20007;-63
2021/01/15 04:55:23;;;;;;;;;;;0.80;99.90;;;;;;10442220;28;20011;-63
2021/01/15 05:00:25;;;;;;;;;;;0.90;99.90;;;;;;10438758;28;19921;-64
2021/01/15 05:05:27;;;;;;;;;;;0.90;99.90;;;;;;10464266;28;19927;-64
2021/01/15 05:10:28;;;;;;;;;;;0.80;99.90;;;;;;10451382;28;20300;-63
2021/01/15 05:15:30;;;;;;;;;;;0.90;99.90;;;;;;10489250;28;19925;-63
2021/01/15 05:20:31;;;;;;;;;;;0.90;99.90;;;;;;10450712;28;20404;-63
2021/01/15 05:25:33;;;;;;;;;;;1.00;99.90;;;;;;10449666;28;19999;-64
2021/01/15 05:30:38;;;;;;;;;;;1.00;99.90;;;;;;10448864;28;20036;-63
2021/01/15 05:35:41;;;;;;;;;;;1.00;99.90;;;;;;10449289;28;20403;-64
2021/01/15 05:40:43;;;;;;;;;;;0.90;99.90;;;;;;10450208;28;20043;-64
2021/01/15 05:46:03;;;;;;;;;;;1.00;99.90;;;;;;10481173;28;20279;-64
2021/01/15 05:51:05;;;;;;;;;;;1.00;99.90;;;;;;10448273;28;19921;-64
2021/01/15 05:56:07;;;;;;;;;;;1.00;99.90;;;;;;10454370;28;19927;-63
2021/01/15 06:01:08;;;;;;;;;;;1.10;99.90;;;;;;10448605;28;19931;-64
2021/01/15 06:06:10;;;;;;;;;;;1.10;99.90;;;;;;10448312;28;19967;-64
2021/01/15 06:11:20;;;;;;;;;;;1.10;99.90;;;;;;10449426;28;19927;-64
2021/01/15 06:16:24;;;;;;;;;;;1.10;99.90;;;;;;10448802;28;20011;-64
2021/01/15 06:21:30;;;;;;;;;;;1.10;99.90;;;;;;10449652;28;19969;-63
2021/01/15 06:26:39;;;;;;;;;;;1.10;99.90;;;;;;10448875;28;20008;-64
2021/01/15 06:31:47;;;;;;;;;;;1.10;99.90;;;;;;10449328;28;20011;-64
2021/01/15 06:36:52;;;;;;;;;;;1.10;99.90;;;;;;10448580;28;19921;-63
2021/01/15 06:42:03;;;;;;;;;;;1.20;99.90;;;;;;10447306;28;19924;-63
2021/01/15 06:47:09;;;;;;;;;;;1.20;99.90;;;;;;10448755;28;19964;-64
2021/01/15 06:52:12;;;;;;;;;;;1.10;99.90;;;;;;10448470;28;19924;-63
2021/01/15 06:57:15;;;;;;;;;;;1.20;99.90;;;;;;10448146;28;19963;-64
2021/01/15 07:02:30;;;;;;;;;;;1.10;99.90;;;;;;10447631;28;19925;-63
2021/01/15 07:07:32;;;;;;;;;;;1.20;99.90;;;;;;10447604;28;20373;-63
2021/01/15 07:12:43;;;;;;;;;;;1.20;99.90;;;;;;10448402;28;20428;-64
2021/01/15 07:17:46;;;;;;;;;;;1.20;99.90;;;;;;10446859;28;19925;-63
2021/01/15 07:22:58;;;;;;;;;;;1.20;99.90;;;;;;10446985;28;19959;-63
2021/01/15 07:28:00;;;;;;;;;;;1.20;99.90;;;;;;10446765;28;20447;-63
2021/01/15 07:33:05;;;;;;;;;;;1.30;99.90;;;;;;10446988;28;19924;-64
2021/01/15 07:38:08;;;;;;;;;;;1.30;99.90;;;;;;10446524;28;20411;-63
2021/01/15 07:43:29;;;;;;;;;;;1.30;99.90;;;;;;10446455;28;19960;-64
2021/01/15 07:48:30;;;;;;;;;;;1.30;99.90;;;;;;10446476;28;20019;-63
2021/01/15 07:53:40;;;;;;;;;;;1.40;99.90;;;;;;10446449;28;20015;-63
2021/01/15 07:58:42;;;;;;;;;;;1.40;99.90;;;;;;10461642;28;19978;-63
2021/01/15 08:03:49;;;;;;;;;;;1.30;99.90;;;;;;10445858;28;20265;-63
2021/01/15 08:09:07;;;;;;;;;;;1.30;99.90;;;;;;10445686;28;19925;-63
2021/01/15 08:14:13;;;;;;;;;;;1.40;99.90;;;;;;10446174;28;19994;-63
2021/01/15 08:19:15;;;;;;;;;;;1.30;99.90;;;;;;10446085;28;19924;-64
2021/01/15 08:24:18;;;;;;;;;;;1.40;99.90;;;;;;10444672;28;20039;-64
2021/01/15 08:29:23;;;;;;;;;;;1.50;99.90;;;;;;10441645;28;20406;-64
2021/01/15 08:34:31;;;;;;;;;;;1.60;99.90;;;;;;10442187;28;20011;-64
2021/01/15 08:39:42;;;;;;;;;;;1.70;99.90;;;;;;10427807;28;19928;-64
2021/01/15 08:44:47;;;;;;;;;;;1.80;99.90;;;;;;10451514;28;20020;-64
2021/01/15 08:49:54;;;;;;;;;;;1.90;99.90;;;;;;10451643;28;19921;-68
2021/01/15 08:54:58;;;;;;;;;;;2.00;99.90;;;;;;10449998;28;19924;-67
2021/01/15 09:00:13;;;;;;;;;;;2.20;99.90;;;;;;10451278;28;19936;-67
2021/01/15 09:05:15;;;;;;;;;;;2.30;99.90;;;;;;10452375;28;19921;-68
2021/01/15 09:10:17;;;;;;;;;;;2.40;99.90;;;;;;10453806;28;20019;-67
2021/01/15 09:15:19;;;;;;;;;;;2.50;99.90;;;;;;10455021;28;20250;-67
2021/01/15 09:20:20;;;;;;;;;;;2.40;99.90;;;;;;10452409;28;19990;-67
2021/01/15 09:25:22;;;;;;;;;;;2.50;99.90;;;;;;10449316;28;20388;-67
2021/01/15 09:30:23;;;;;;;;;;;2.60;99.90;;;;;;10449198;28;20382;-67
2021/01/15 09:35:25;;;;;;;;;;;2.60;99.90;;;;;;10450719;28;20399;-67
2021/01/15 09:40:26;;;;;;;;;;;2.70;99.90;;;;;;10464291;28;19920;-67
2021/01/15 09:45:28;;;;;;;;;;;2.80;99.90;;;;;;10471650;28;19920;-67
2021/01/15 09:50:29;;;;;;;;;;;3.00;99.90;;;;;;10463725;28;19920;-68
2021/01/15 09:55:30;;;;;;;;;;;3.00;99.90;;;;;;10463940;28;19956;-68
2021/01/15 10:00:32;;;;;;;;;;;3.20;99.90;;;;;;10468028;28;19960;-68
2021/01/15 10:05:34;;;;;;;;;;;3.20;99.90;;;;;;10446275;28;20320;-68
2021/01/15 10:10:36;;;;;;;;;;;3.40;99.90;;;;;;10448542;28;20405;-67
2021/01/15 10:15:37;;;;;;;;;;;3.40;99.90;;;;;;10447811;28;20347;-67
2021/01/15 10:20:44;;;;;;;;;;;3.50;99.90;;;;;;10450147;28;20013;-68
2021/01/15 10:25:46;;;;;;;;;;;3.70;99.90;;;;;;10449856;28;20459;-68
2021/01/15 10:30:47;;;;;;;;;;;3.90;99.90;;;;;;10448599;28;20012;-67
2021/01/15 10:35:49;;;;;;;;;;;3.90;99.90;;;;;;10448017;28;19925;-64
2021/01/15 10:40:51;;;;;;;;;;;3.60;99.90;;;;;;10449805;28;19924;-63
2021/01/15 10:45:54;;;;;;;;;;;3.60;99.90;;;;;;10464056;28;19987;-64
2021/01/15 10:50:55;;;;;;;;;;;3.60;99.90;;;;;;10447835;28;19948;-64
2021/01/15 10:55:56;;;;;;;;;;;3.70;99.90;;;;;;10464387;28;19925;-64
2021/01/15 11:00:58;;;;;;;;;;;3.70;99.90;;;;;;10448217;28;19932;-63
2021/01/15 11:06:00;;;;;;;;;;;3.80;99.90;;;;;;10448724;28;19932;-64
2021/01/15 11:11:04;;;;;;;;;;;3.90;99.90;;;;;;10448273;28;19931;-64
2021/01/15 11:16:09;;;;;;;;;;;4.00;99.90;;;;;;10448340;28;19928;-64
2021/01/15 11:21:11;;;;;;;;;;;4.10;99.90;;;;;;10447963;28;19963;-64
2021/01/15 11:26:12;;;;;;;;;;;4.10;99.90;;;;;;10448260;28;19928;-64
2021/01/15 11:31:15;;;;;;;;;;;4.10;99.90;;;;;;10447321;28;19968;-64
2021/01/15 11:36:17;;;;;;;;;;;4.20;99.90;;;;;;10447579;28;19925;-64
2021/01/15 11:41:18;;;;;;;;;;;4.20;99.90;;;;;;10447632;28;20339;-64
2021/01/15 11:46:20;;;;;;;;;;;4.20;99.90;;;;;;10446784;28;19925;-63
2021/01/15 11:51:23;;;;;;;;;;;4.10;99.90;;;;;;10446474;28;19983;-64
2021/01/15 11:56:25;;;;;;;;;;;4.10;99.90;;;;;;10447112;28;19931;-64
2021/01/15 12:01:26;;;;;;;;;;;4.10;99.90;;;;;;10446090;28;19963;-64
2021/01/15 12:06:28;;;;;;;;;;;4.10;99.90;;;;;;10446743;28;19925;-64
2021/01/15 12:11:30;;;;;;;;;;;4.20;99.90;;;;;;10446352;28;19925;-64
2021/01/15 12:16:31;;;;;;;;;;;4.20;99.90;;;;;;10445694;28;19925;-64
2021/01/15 12:21:32;;;;;;;;;;;4.30;99.90;;;;;;10446118;28;19979;-64
2021/01/15 12:26:40;;;;;;;;;;;4.20;99.90;;;;;;10446439;28;20007;-64
2021/01/15 12:31:41;;;;;;;;;;;4.20;99.90;;;;;;10445329;28;20454;-64
2021/01/15 12:36:44;;;;;;;;;;;4.10;99.90;;;;;;10446395;28;19932;-64
2021/01/15 12:41:47;;;;;;;;;;;4.10;99.90;;;;;;10446555;28;19931;-64
2021/01/15 12:46:48;;;;;;;;;;;4.20;99.90;;;;;;10445917;28;19925;-64
2021/01/15 12:51:49;;;;;;;;;;;4.20;99.90;;;;;;10445902;28;19998;-64
2021/01/15 12:56:52;;;;;;;;;;;4.10;99.90;;;;;;10445632;28;19933;-64
2021/01/15 13:01:53;;;;;;;;;;;4.10;99.90;;;;;;10445148;28;20427;-63
2021/01/15 13:06:55;;;;;;;;;;;4.20;99.90;;;;;;10445976;28;19929;-64
2021/01/15 13:11:58;;;;;;;;;;;4.20;99.90;;;;;;10445337;28;20347;-64
2021/01/15 13:17:02;;;;;;;;;;;4.10;99.90;;;;;;10444671;28;19928;-64
2021/01/15 13:22:03;;;;;;;;;;;4.20;99.90;;;;;;10445219;28;19978;-64
2021/01/15 13:27:05;;;;;;;;;;;4.10;99.90;;;;;;10445529;28;19956;-64
2021/01/15 13:32:06;;;;;;;;;;;4.10;99.90;;;;;;10451935;28;20012;-64
2021/01/15 13:37:10;;;;;;;;;;;4.20;99.90;;;;;;10452098;28;19967;-64
2021/01/15 13:42:15;;;;;;;;;;;4.20;99.90;;;;;;10452273;28;20321;-64
2021/01/15 13:47:16;;;;;;;;;;;4.20;99.90;;;;;;10451060;28;19925;-64
2021/01/15 13:52:18;;;;;;;;;;;4.20;99.90;;;;;;10451853;28;19998;-64
2021/01/15 13:57:19;;;;;;;;;;;4.10;99.90;;;;;;10451726;28;19929;-64
2021/01/15 14:02:20;;;;;;;;;;;4.10;99.90;;;;;;10450584;28;19928;-63
2021/01/15 14:07:22;;;;;;;;;;;4.20;99.90;;;;;;10450929;28;20440;-64
2021/01/15 14:12:23;;;;;;;;;;;4.30;99.90;;;;;;10450820;28;20292;-64
2021/01/15 14:17:24;;;;;;;;;;;4.30;99.90;;;;;;10450539;28;20015;-64
2021/01/15 14:22:28;;;;;;;;;;;4.30;99.90;;;;;;10450444;28;20604;-64
2021/01/15 14:27:30;;;;;;;;;;;4.20;99.90;;;;;;10450209;28;19925;-64
2021/01/15 14:32:31;;;;;;;;;;;4.20;99.90;;;;;;10449770;28;20019;-64
2021/01/15 14:37:32;;;;;;;;;;;4.20;99.90;;;;;;10450547;28;19931;-63
2021/01/15 14:42:34;;;;;;;;;;;4.30;99.90;;;;;;10449645;28;20011;-64
2021/01/15 14:47:36;;;;;;;;;;;4.20;99.90;;;;;;10448781;28;19925;-64
2021/01/15 14:52:44;;;;;;;;;;;4.20;99.90;;;;;;10449321;28;19980;-64
2021/01/15 14:57:46;;;;;;;;;;;4.20;99.90;;;;;;10448951;28;20340;-64
2021/01/15 15:02:47;;;;;;;;;;;4.10;99.90;;;;;;10448326;28;19929;-63
2021/01/15 15:07:49;;;;;;;;;;;4.00;99.90;;;;;;10449065;28;19924;-64
2021/01/15 15:12:52;;;;;;;;;;;3.90;99.90;;;;;;10447307;28;19987;-64
2021/01/15 15:17:57;;;;;;;;;;;3.90;99.90;;;;;;10447928;28;19935;-64
2021/01/15 15:22:59;;;;;;;;;;;3.90;99.90;;;;;;10463631;28;20384;-63
2021/01/15 15:28:01;;;;;;;;;;;4.00;99.90;;;;;;10447915;28;20418;-64
2021/01/15 15:33:03;;;;;;;;;;;4.00;99.90;;;;;;10447229;28;20012;-64
2021/01/15 15:38:14;;;;;;;;;;;4.00;99.90;;;;;;10446062;28;20019;-64
2021/01/15 15:43:18;;;;;;;;;;;4.00;99.90;;;;;;10447187;28;19929;-64
2021/01/15 15:48:20;;;;;;;;;;;4.00;99.90;;;;;;10446789;28;20361;-63
2021/01/15 15:53:21;;;;;;;;;;;3.90;99.90;;;;;;10446760;28;19983;-64
2021/01/15 15:58:22;;;;;;;;;;;3.90;99.90;;;;;;10446531;28;19979;-64
2021/01/15 16:03:24;;;;;;;;;;;3.80;99.90;;;;;;10445155;28;20423;-64
2021/01/15 16:08:25;;;;;;;;;;;3.80;99.90;;;;;;10447323;28;19925;-64
2021/01/15 16:13:26;;;;;;;;;;;3.70;99.90;;;;;;10446563;28;19925;-64
2021/01/15 16:18:28;;;;;;;;;;;3.70;99.90;;;;;;10446176;28;19925;-64
2021/01/15 16:23:29;;;;;;;;;;;3.70;99.90;;;;;;10446351;28;20343;-64
2021/01/15 16:28:30;;;;;;;;;;;3.60;99.90;;;;;;10446044;28;19928;-64
2021/01/15 16:33:34;;;;;;;;;;;3.60;99.90;;;;;;10446031;28;19982;-64
2021/01/15 16:38:35;;;;;;;;;;;3.60;99.90;;;;;;10446133;28;19975;-64
2021/01/15 16:43:37;;;;;;;;;;;3.60;99.90;;;;;;10446015;28;20407;-64
2021/01/15 16:48:38;;;;;;;;;;;3.60;99.90;;;;;;10460526;28;19925;-64
2021/01/15 16:53:40;;;;;;;;;;;3.60;99.90;;;;;;10446505;28;19925;-64
2021/01/15 16:58:41;;;;;;;;;;;3.50;99.90;;;;;;10445415;28;19964;-64
2021/01/15 17:03:43;;;;;;;;;;;3.50;99.90;;;;;;10450452;28;19925;-63
2021/01/15 17:08:45;;;;;;;;;;;3.50;99.90;;;;;;10453849;28;20007;-64
2021/01/15 17:13:46;;;;;;;;;;;3.50;99.90;;;;;;10452732;28;20378;-64
2021/01/15 17:18:48;;;;;;;;;;;3.50;99.90;;;;;;10453079;28;20452;-64
2021/01/15 17:23:49;;;;;;;;;;;3.50;99.90;;;;;;10452704;28;19960;-64
2021/01/15 17:28:51;;;;;;;;;;;3.50;99.90;;;;;;10467723;28;19968;-64
2021/01/15 17:33:53;;;;;;;;;;;3.40;99.90;;;;;;10452133;28;19964;-65
2021/01/15 17:38:54;;;;;;;;;;;3.40;99.90;;;;;;10450986;28;19947;-64
2021/01/15 17:43:55;;;;;;;;;;;3.50;99.90;;;;;;10451347;28;20093;-64
2021/01/15 17:48:57;;;;;;;;;;;3.40;99.90;;;;;;10451507;28;19962;-63
2021/01/15 17:53:59;;;;;;;;;;;3.40;99.90;;;;;;10452083;28;19972;-64
2021/01/15 17:59:01;;;;;;;;;;;3.40;99.90;;;;;;10450781;28;20024;-64
2021/01/15 18:04:02;;;;;;;;;;;3.30;99.90;;;;;;10451541;28;19933;-64
2021/01/15 18:09:04;;;;;;;;;;;3.30;99.90;;;;;;10451586;28;19929;-64
2021/01/15 18:14:06;;;;;;;;;;;3.30;99.90;;;;;;10449507;28;19968;-64
2021/01/15 18:19:07;;;;;;;;;;;3.30;99.90;;;;;;10450528;28;19932;-63
2021/01/15 18:24:09;;;;;;;;;;;3.40;99.90;;;;;;10450330;28;20321;-64
2021/01/15 18:29:11;;;;;;;;;;;3.50;99.90;;;;;;10450016;28;19935;-64
2021/01/15 18:34:12;;;;;;;;;;;3.40;99.90;;;;;;10450069;28;20012;-63
2021/01/15 18:39:14;;;;;;;;;;;3.40;99.90;;;;;;10449830;28;19964;-64
2021/01/15 18:44:15;;;;;;;;;;;3.50;99.90;;;;;;10449682;28;19936;-64
2021/01/15 18:49:17;;;;;;;;;;;3.50;99.90;;;;;;10449353;28;20364;-64
2021/01/15 18:54:19;;;;;;;;;;;3.50;99.90;;;;;;10449459;28;19968;-64
2021/01/15 18:59:21;;;;;;;;;;;3.50;99.90;;;;;;10448548;28;20160;-64
2021/01/15 19:04:22;;;;;;;;;;;3.50;99.90;;;;;;10449507;28;20300;-64
2021/01/15 19:09:23;;;;;;;;;;;3.40;99.90;;;;;;10448918;28;19964;-63
2021/01/15 19:14:25;;;;;;;;;;;3.40;99.90;;;;;;10448424;28;20008;-64
2021/01/15 19:19:27;;;;;;;;;;;3.30;99.90;;;;;;10448482;28;20020;-64
2021/01/15 19:24:28;;;;;;;;;;;3.30;99.90;;;;;;10448048;28;19929;-64
2021/01/15 19:29:30;;;;;;;;;;;3.30;99.90;;;;;;10462838;28;20007;-64
2021/01/15 19:34:31;;;;;;;;;;;3.30;99.90;;;;;;10448043;28;19956;-64
2021/01/15 19:39:34;;;;;;;;;;;3.30;99.90;;;;;;10447671;28;19970;-63
2021/01/15 19:44:35;;;;;;;;;;;3.20;99.90;;;;;;10447260;28;19960;-64
2021/01/15 19:49:36;;;;;;;;;;;3.30;99.90;;;;;;10462631;28;19928;-64
2021/01/15 19:54:38;;;;;;;;;;;3.20;99.90;;;;;;10447176;28;20428;-64
2021/01/15 19:59:39;;;;;;;;;;;3.20;99.90;;;;;;10446474;28;20472;-64
2021/01/15 20:04:40;;;;;;;;;;;3.20;99.90;;;;;;10446992;28;19972;-64
2021/01/15 20:09:42;;;;;;;;;;;3.10;99.90;;;;;;10446488;28;19960;-64
2021/01/15 20:14:43;;;;;;;;;;;3.10;99.90;;;;;;10446190;28;20285;-64
2021/01/15 20:19:45;;;;;;;;;;;3.00;99.90;;;;;;10446346;28;19999;-64
2021/01/15 20:24:46;;;;;;;;;;;3.00;99.90;;;;;;10446411;28;20336;-64
2021/01/15 20:29:47;;;;;;;;;;;3.00;99.90;;;;;;10445802;28;19936;-64
2021/01/15 20:34:49;;;;;;;;;;;2.90;99.90;;;;;;10461855;28;19946;-63
2021/01/15 20:39:51;;;;;;;;;;;2.90;99.90;;;;;;10452532;28;20328;-63
2021/01/15 20:44:52;;;;;;;;;;;2.90;99.90;;;;;;10453979;28;20366;-63
2021/01/15 20:49:53;;;;;;;;;;;2.90;99.90;;;;;;10454491;28;20012;-63
2021/01/15 20:54:54;;;;;;;;;;;2.90;99.90;;;;;;10453742;28;20008;-64
2021/01/15 20:59:56;;;;;;;;;;;2.90;99.90;;;;;;10453318;28;19925;-64
2021/01/15 21:04:57;;;;;;;;;;;2.90;99.90;;;;;;10454010;28;19971;-64
2021/01/15 21:09:58;;;;;;;;;;;2.90;99.90;;;;;;10468615;28;20095;-64
2021/01/15 21:15:00;;;;;;;;;;;2.80;99.90;;;;;;10452746;28;20408;-63
2021/01/15 21:20:01;;;;;;;;;;;2.80;99.90;;;;;;10452980;28;19925;-64
2021/01/15 21:25:03;;;;;;;;;;;2.70;99.90;;;;;;10453058;28;19928;-64
2021/01/15 21:30:06;;;;;;;;;;;2.70;99.90;;;;;;10452092;28;20462;-64
2021/01/15 21:35:08;;;;;;;;;;;2.70;99.90;;;;;;10452139;28;19925;-64
2021/01/15 21:40:09;;;;;;;;;;;2.70;99.90;;;;;;10452541;28;19971;-64
2021/01/15 21:45:11;;;;;;;;;;;2.70;99.90;;;;;;10451929;28;19932;-64
2021/01/15 21:50:14;;;;;;;;;;;2.70;99.90;;;;;;10450412;28;19971;-64
2021/01/15 21:55:16;;;;;;;;;;;2.80;99.90;;;;;;10452133;28;19960;-64
2021/01/15 22:00:21;;;;;;;;;;;2.70;99.90;;;;;;10450958;28;20344;-64
2021/01/15 22:05:22;;;;;;;;;;;2.70;99.90;;;;;;10451077;28;20304;-64
2021/01/15 22:10:23;;;;;;;;;;;2.70;99.90;;;;;;10451447;28;19924;-64
2021/01/15 22:15:25;;;;;;;;;;;2.70;99.90;;;;;;10449103;28;20431;-64
2021/01/15 22:20:26;;;;;;;;;;;2.70;99.90;;;;;;10450514;28;19994;-64
2021/01/15 22:25:27;;;;;;;;;;;2.70;99.90;;;;;;10439524;28;19963;-64
2021/01/15 22:30:29;;;;;;;;;;;2.70;99.90;;;;;;10449099;28;19929;-64
2021/01/15 22:35:31;;;;;;;;;;;2.70;99.90;;;;;;10448212;28;19978;-64
2021/01/15 22:40:32;;;;;;;;;;;2.70;99.90;;;;;;10447709;28;20373;-64
2021/01/15 22:45:33;;;;;;;;;;;2.80;99.90;;;;;;10447355;28;19955;-64
2021/01/15 22:50:34;;;;;;;;;;;2.70;99.90;;;;;;10445638;28;19959;-64
2021/01/15 22:55:36;;;;;;;;;;;2.70;99.90;;;;;;10446534;28;20055;-65
2021/01/15 23:00:37;;;;;;;;;;;2.80;99.90;;;;;;10437484;28;19929;-64
2021/01/15 23:05:39;;;;;;;;;;;2.80;99.90;;;;;;10441507;28;19933;-64
2021/01/15 23:10:42;;;;;;;;;;;2.80;99.90;;;;;;10426950;28;19932;-64
2021/01/15 23:15:43;;;;;;;;;;;2.80;99.90;;;;;;10435847;28;20019;-64
2021/01/15 23:20:44;;;;;;;;;;;2.80;99.90;;;;;;10412162;28;20381;-64
2021/01/15 23:25:47;;;;;;;;;;;2.80;99.90;;;;;;10469847;28;20373;-64
2021/01/15 23:30:50;;;;;;;;;;;2.80;99.90;;;;;;10414062;28;20012;-65
2021/01/15 23:35:51;;;;;;;;;;;2.70;99.90;;;;;;10406554;28;19925;-64
2021/01/15 23:40:53;;;;;;;;;;;2.70;99.90;;;;;;10411785;28;19978;-64
2021/01/15 23:45:54;;;;;;;;;;;2.70;99.90;;;;;;10445928;28;20011;-64
2021/01/15 23:50:57;;;;;;;;;;;2.70;99.90;;;;;;10444594;28;19929;-64
2021/01/15 23:55:59;;;;;;;;;;;2.80;99.90;;;;;;10442544;28;19987;-64
